sensor_id;sensor_type;location;lat;lon;timestamp;P1;durP1;ratioP1;P2;durP2;ratioP2
5339;SDS011;2692;48.848;8.924;2022-10-16T00:00:22;0.80;;;0.30;;
5339;SDS011;2692;48.848;8.924;2022-10-16T00:02:47;1.67;;;0.50;;
5339;SDS011;2692;48.848;8.924;2022-10-16T00:05:13;5.70;;;0.60;;
5339;SDS011;2692;48.848;8.924;2022-10-16T00:07:38;1.37;;;0.60;;
5339;SDS011;2692;48.848;8.924;2022-10-16T00:10:03;1.23;;;0.60;;
5339;SDS011;2692;48.848;8.924;2022-10-16T00:12:29;1.40;;;0.60;;
5339;SDS011;2692;48.848;8.924;2022-10-16T00:14:54;9.70;;;0.47;;
5339;SDS011;2692;48.848;8.924;2022-10-16T00:17:19;0.90;;;0.50;;
5339;SDS011;2692;48.848;8.924;2022-10-16T00:19:45;1.10;;;0.50;;
5339;SDS011;2692;48.848;8.924;2022-10-16T00:22:10;4.30;;;1.10;;
5339;SDS011;2692;48.848;8.924;2022-10-16T00:24:36;1.63;;;0.63;;
5339;SDS011;2692;48.848;8.924;2022-10-16T00:27:01;3.67;;;1.57;;
5339;SDS011;2692;48.848;8.924;2022-10-16T00:29:26;1.63;;;0.83;;
5339;SDS011;2692;48.848;8.924;2022-10-16T00:31:52;1.30;;;0.70;;
5339;SDS011;2692;48.848;8.924;2022-10-16T00:34:17;1.10;;;0.57;;
5339;SDS011;2692;48.848;8.924;2022-10-16T00:36:42;1.60;;;0.60;;
5339;SDS011;2692;48.848;8.924;2022-10-16T00:39:07;1.33;;;0.83;;
5339;SDS011;2692;48.848;8.924;2022-10-16T00:41:33;1.40;;;0.73;;
5339;SDS011;2692;48.848;8.924;2022-10-16T00:43:59;2.80;;;0.77;;
5339;SDS011;2692;48.848;8.924;2022-10-16T00:46:27;1.90;;;0.53;;
5339;SDS011;2692;48.848;8.924;2022-10-16T00:49:04;1.60;;;0.47;;
5339;SDS011;2692;48.848;8.924;2022-10-16T00:51:35;1.87;;;0.50;;
5339;SDS011;2692;48.848;8.924;2022-10-16T00:54:03;1.10;;;0.50;;
5339;SDS011;2692;48.848;8.924;2022-10-16T00:56:35;2.17;;;0.77;;
5339;SDS011;2692;48.848;8.924;2022-10-16T00:59:06;3.20;;;0.70;;
5339;SDS011;2692;48.848;8.924;2022-10-16T01:01:35;1.77;;;0.60;;
5339;SDS011;2692;48.848;8.924;2022-10-16T01:04:00;1.77;;;0.50;;
5339;SDS011;2692;48.848;8.924;2022-10-16T01:09:37;0.90;;;0.40;;
5339;SDS011;2692;48.848;8.924;2022-10-16T01:12:12;1.27;;;0.40;;
5339;SDS011;2692;48.848;8.924;2022-10-16T01:17:15;1.10;;;0.50;;
5339;SDS011;2692;48.848;8.924;2022-10-16T01:22:14;1.00;;;0.50;;
5339;SDS011;2692;48.848;8.924;2022-10-16T01:24:41;0.90;;;0.50;;
5339;SDS011;2692;48.848;8.924;2022-10-16T01:27:25;3.17;;;0.47;;
5339;SDS011;2692;48.848;8.924;2022-10-16T01:32:36;1.83;;;0.70;;
5339;SDS011;2692;48.848;8.924;2022-10-16T01:35:05;1.20;;;0.53;;
5339;SDS011;2692;48.848;8.924;2022-10-16T01:37:46;1.10;;;0.53;;
5339;SDS011;2692;48.848;8.924;2022-10-16T01:40:14;3.17;;;0.60;;
5339;SDS011;2692;48.848;8.924;2022-10-16T01:42:42;1.40;;;0.40;;
5339;SDS011;2692;48.848;8.924;2022-10-16T01:45:11;1.07;;;0.47;;
5339;SDS011;2692;48.848;8.924;2022-10-16T01:47:38;4.50;;;0.53;;
5339;SDS011;2692;48.848;8.924;2022-10-16T01:50:04;1.10;;;0.60;;
5339;SDS011;2692;48.848;8.924;2022-10-16T01:52:30;2.30;;;0.97;;
5339;SDS011;2692;48.848;8.924;2022-10-16T01:54:57;1.23;;;0.43;;
5339;SDS011;2692;48.848;8.924;2022-10-16T01:57:23;1.57;;;0.80;;
5339;SDS011;2692;48.848;8.924;2022-10-16T01:59:51;1.00;;;0.50;;
5339;SDS011;2692;48.848;8.924;2022-10-16T02:02:20;1.10;;;0.67;;
5339;SDS011;2692;48.848;8.924;2022-10-16T02:04:47;0.90;;;0.40;;
5339;SDS011;2692;48.848;8.924;2022-10-16T02:07:16;2.10;;;0.57;;
5339;SDS011;2692;48.848;8.924;2022-10-16T02:09:41;1.20;;;0.53;;
5339;SDS011;2692;48.848;8.924;2022-10-16T02:12:22;2.47;;;0.73;;
5339;SDS011;2692;48.848;8.924;2022-10-16T02:14:50;1.10;;;0.50;;
5339;SDS011;2692;48.848;8.924;2022-10-16T02:17:16;4.57;;;1.30;;
5339;SDS011;2692;48.848;8.924;2022-10-16T02:19:42;1.00;;;0.40;;
5339;SDS011;2692;48.848;8.924;2022-10-16T02:22:09;1.07;;;0.53;;
5339;SDS011;2692;48.848;8.924;2022-10-16T02:27:11;1.10;;;0.47;;
5339;SDS011;2692;48.848;8.924;2022-10-16T02:29:41;4.00;;;0.57;;
5339;SDS011;2692;48.848;8.924;2022-10-16T02:32:15;1.13;;;0.50;;
5339;SDS011;2692;48.848;8.924;2022-10-16T02:34:42;1.87;;;0.60;;
5339;SDS011;2692;48.848;8.924;2022-10-16T02:37:08;2.50;;;0.57;;
5339;SDS011;2692;48.848;8.924;2022-10-16T02:39:35;0.90;;;0.40;;
5339;SDS011;2692;48.848;8.924;2022-10-16T02:42:00;1.20;;;0.70;;
5339;SDS011;2692;48.848;8.924;2022-10-16T02:44:26;1.00;;;0.50;;
5339;SDS011;2692;48.848;8.924;2022-10-16T02:46:51;2.67;;;0.60;;
5339;SDS011;2692;48.848;8.924;2022-10-16T02:49:16;1.37;;;0.50;;
5339;SDS011;2692;48.848;8.924;2022-10-16T02:51:43;1.10;;;0.70;;
5339;SDS011;2692;48.848;8.924;2022-10-16T02:54:08;1.30;;;0.53;;
5339;SDS011;2692;48.848;8.924;2022-10-16T02:56:33;1.30;;;0.63;;
5339;SDS011;2692;48.848;8.924;2022-10-16T02:58:58;1.20;;;0.67;;
5339;SDS011;2692;48.848;8.924;2022-10-16T03:01:24;0.90;;;0.50;;
5339;SDS011;2692;48.848;8.924;2022-10-16T03:03:49;1.03;;;0.60;;
5339;SDS011;2692;48.848;8.924;2022-10-16T03:06:15;1.20;;;0.50;;
5339;SDS011;2692;48.848;8.924;2022-10-16T03:08:40;1.00;;;0.50;;
5339;SDS011;2692;48.848;8.924;2022-10-16T03:11:05;1.67;;;0.60;;
5339;SDS011;2692;48.848;8.924;2022-10-16T03:13:31;1.97;;;0.50;;
5339;SDS011;2692;48.848;8.924;2022-10-16T03:15:56;1.13;;;0.63;;
5339;SDS011;2692;48.848;8.924;2022-10-16T03:18:21;1.10;;;0.60;;
5339;SDS011;2692;48.848;8.924;2022-10-16T03:20:46;1.13;;;0.40;;
5339;SDS011;2692;48.848;8.924;2022-10-16T03:23:12;1.10;;;0.60;;
5339;SDS011;2692;48.848;8.924;2022-10-16T03:25:37;1.00;;;0.50;;
5339;SDS011;2692;48.848;8.924;2022-10-16T03:28:02;1.20;;;0.57;;
5339;SDS011;2692;48.848;8.924;2022-10-16T03:30:28;1.10;;;0.50;;
5339;SDS011;2692;48.848;8.924;2022-10-16T03:32:53;1.57;;;0.50;;
5339;SDS011;2692;48.848;8.924;2022-10-16T03:35:22;1.67;;;0.60;;
5339;SDS011;2692;48.848;8.924;2022-10-16T03:37:48;1.20;;;0.57;;
5339;SDS011;2692;48.848;8.924;2022-10-16T03:40:13;1.10;;;0.60;;
5339;SDS011;2692;48.848;8.924;2022-10-16T03:42:38;2.23;;;0.83;;
5339;SDS011;2692;48.848;8.924;2022-10-16T03:45:04;1.03;;;0.50;;
5339;SDS011;2692;48.848;8.924;2022-10-16T03:47:30;3.60;;;1.07;;
5339;SDS011;2692;48.848;8.924;2022-10-16T03:49:57;3.83;;;0.50;;
5339;SDS011;2692;48.848;8.924;2022-10-16T03:52:23;1.30;;;0.70;;
5339;SDS011;2692;48.848;8.924;2022-10-16T03:54:48;1.10;;;0.50;;
5339;SDS011;2692;48.848;8.924;2022-10-16T03:57:13;1.10;;;0.70;;
5339;SDS011;2692;48.848;8.924;2022-10-16T03:59:38;2.13;;;0.87;;
5339;SDS011;2692;48.848;8.924;2022-10-16T04:02:04;1.40;;;0.60;;
5339;SDS011;2692;48.848;8.924;2022-10-16T04:04:29;1.47;;;0.63;;
5339;SDS011;2692;48.848;8.924;2022-10-16T04:06:54;1.00;;;0.50;;
5339;SDS011;2692;48.848;8.924;2022-10-16T04:09:20;1.00;;;0.60;;
5339;SDS011;2692;48.848;8.924;2022-10-16T04:11:45;1.40;;;0.63;;
5339;SDS011;2692;48.848;8.924;2022-10-16T04:14:10;1.40;;;0.70;;
5339;SDS011;2692;48.848;8.924;2022-10-16T04:16:35;1.30;;;0.60;;
5339;SDS011;2692;48.848;8.924;2022-10-16T04:19:01;1.43;;;0.93;;
5339;SDS011;2692;48.848;8.924;2022-10-16T04:21:26;6.03;;;0.93;;
5339;SDS011;2692;48.848;8.924;2022-10-16T04:23:51;1.57;;;0.80;;
5339;SDS011;2692;48.848;8.924;2022-10-16T04:26:17;1.60;;;0.80;;
5339;SDS011;2692;48.848;8.924;2022-10-16T04:28:42;1.00;;;0.43;;
5339;SDS011;2692;48.848;8.924;2022-10-16T04:31:08;1.33;;;0.53;;
5339;SDS011;2692;48.848;8.924;2022-10-16T04:33:33;3.90;;;1.20;;
5339;SDS011;2692;48.848;8.924;2022-10-16T04:35:59;1.83;;;0.90;;
5339;SDS011;2692;48.848;8.924;2022-10-16T04:38:25;1.93;;;0.70;;
5339;SDS011;2692;48.848;8.924;2022-10-16T04:40:50;1.60;;;0.63;;
5339;SDS011;2692;48.848;8.924;2022-10-16T04:43:16;1.10;;;0.40;;
5339;SDS011;2692;48.848;8.924;2022-10-16T04:45:41;2.70;;;0.50;;
5339;SDS011;2692;48.848;8.924;2022-10-16T04:48:07;1.87;;;0.67;;
5339;SDS011;2692;48.848;8.924;2022-10-16T04:50:32;2.73;;;0.70;;
5339;SDS011;2692;48.848;8.924;2022-10-16T04:52:57;1.77;;;0.80;;
5339;SDS011;2692;48.848;8.924;2022-10-16T04:55:22;1.07;;;0.40;;
5339;SDS011;2692;48.848;8.924;2022-10-16T04:57:48;1.73;;;0.70;;
5339;SDS011;2692;48.848;8.924;2022-10-16T05:00:13;2.00;;;0.73;;
5339;SDS011;2692;48.848;8.924;2022-10-16T05:02:38;1.00;;;0.50;;
5339;SDS011;2692;48.848;8.924;2022-10-16T05:05:04;1.77;;;0.70;;
5339;SDS011;2692;48.848;8.924;2022-10-16T05:07:29;1.13;;;0.70;;
5339;SDS011;2692;48.848;8.924;2022-10-16T05:09:55;1.07;;;0.53;;
5339;SDS011;2692;48.848;8.924;2022-10-16T05:12:20;1.20;;;0.60;;
5339;SDS011;2692;48.848;8.924;2022-10-16T05:14:45;1.77;;;0.77;;
5339;SDS011;2692;48.848;8.924;2022-10-16T05:17:10;1.50;;;0.60;;
5339;SDS011;2692;48.848;8.924;2022-10-16T05:19:36;1.30;;;0.70;;
5339;SDS011;2692;48.848;8.924;2022-10-16T05:22:01;1.83;;;1.37;;
5339;SDS011;2692;48.848;8.924;2022-10-16T05:24:27;1.67;;;0.77;;
5339;SDS011;2692;48.848;8.924;2022-10-16T05:26:52;2.10;;;0.50;;
5339;SDS011;2692;48.848;8.924;2022-10-16T05:29:17;3.10;;;0.60;;
5339;SDS011;2692;48.848;8.924;2022-10-16T05:31:43;1.97;;;0.80;;
5339;SDS011;2692;48.848;8.924;2022-10-16T05:34:08;1.03;;;0.57;;
5339;SDS011;2692;48.848;8.924;2022-10-16T05:36:33;2.80;;;0.57;;
5339;SDS011;2692;48.848;8.924;2022-10-16T05:38:59;1.27;;;0.77;;
5339;SDS011;2692;48.848;8.924;2022-10-16T05:41:24;2.50;;;0.60;;
5339;SDS011;2692;48.848;8.924;2022-10-16T05:43:51;3.33;;;0.80;;
5339;SDS011;2692;48.848;8.924;2022-10-16T05:46:17;2.00;;;0.73;;
5339;SDS011;2692;48.848;8.924;2022-10-16T05:48:42;1.90;;;0.67;;
5339;SDS011;2692;48.848;8.924;2022-10-16T05:51:09;2.40;;;1.70;;
5339;SDS011;2692;48.848;8.924;2022-10-16T05:53:36;2.10;;;1.27;;
5339;SDS011;2692;48.848;8.924;2022-10-16T05:56:02;1.60;;;1.00;;
5339;SDS011;2692;48.848;8.924;2022-10-16T05:58:30;4.67;;;0.87;;
5339;SDS011;2692;48.848;8.924;2022-10-16T06:00:57;2.40;;;0.80;;
5339;SDS011;2692;48.848;8.924;2022-10-16T06:03:24;1.00;;;0.50;;
5339;SDS011;2692;48.848;8.924;2022-10-16T06:05:49;2.30;;;0.70;;
5339;SDS011;2692;48.848;8.924;2022-10-16T06:08:15;1.10;;;0.50;;
5339;SDS011;2692;48.848;8.924;2022-10-16T06:10:40;1.73;;;0.67;;
5339;SDS011;2692;48.848;8.924;2022-10-16T06:13:05;2.47;;;0.73;;
5339;SDS011;2692;48.848;8.924;2022-10-16T06:15:31;1.40;;;0.50;;
5339;SDS011;2692;48.848;8.924;2022-10-16T06:17:56;2.10;;;0.80;;
5339;SDS011;2692;48.848;8.924;2022-10-16T06:20:21;0.90;;;0.50;;
5339;SDS011;2692;48.848;8.924;2022-10-16T06:22:46;3.37;;;1.30;;
5339;SDS011;2692;48.848;8.924;2022-10-16T06:25:12;2.00;;;0.70;;
5339;SDS011;2692;48.848;8.924;2022-10-16T06:27:39;1.60;;;0.70;;
5339;SDS011;2692;48.848;8.924;2022-10-16T06:30:05;1.87;;;0.83;;
5339;SDS011;2692;48.848;8.924;2022-10-16T06:32:31;1.70;;;0.87;;
5339;SDS011;2692;48.848;8.924;2022-10-16T06:34:56;3.87;;;0.90;;
5339;SDS011;2692;48.848;8.924;2022-10-16T06:37:21;1.77;;;1.07;;
5339;SDS011;2692;48.848;8.924;2022-10-16T06:39:47;1.20;;;0.60;;
5339;SDS011;2692;48.848;8.924;2022-10-16T06:42:12;2.93;;;0.77;;
5339;SDS011;2692;48.848;8.924;2022-10-16T06:44:37;2.50;;;0.80;;
5339;SDS011;2692;48.848;8.924;2022-10-16T06:47:03;4.97;;;1.30;;
5339;SDS011;2692;48.848;8.924;2022-10-16T06:49:28;2.10;;;1.03;;
5339;SDS011;2692;48.848;8.924;2022-10-16T06:51:54;2.07;;;0.90;;
5339;SDS011;2692;48.848;8.924;2022-10-16T06:54:19;2.27;;;0.80;;
5339;SDS011;2692;48.848;8.924;2022-10-16T06:56:44;1.03;;;0.53;;
5339;SDS011;2692;48.848;8.924;2022-10-16T06:59:09;3.20;;;0.80;;
5339;SDS011;2692;48.848;8.924;2022-10-16T07:01:35;1.40;;;0.70;;
5339;SDS011;2692;48.848;8.924;2022-10-16T07:04:00;1.73;;;0.90;;
5339;SDS011;2692;48.848;8.924;2022-10-16T07:06:27;2.60;;;1.13;;
5339;SDS011;2692;48.848;8.924;2022-10-16T07:08:55;1.93;;;1.00;;
5339;SDS011;2692;48.848;8.924;2022-10-16T07:11:22;1.97;;;0.90;;
5339;SDS011;2692;48.848;8.924;2022-10-16T07:13:48;2.80;;;1.13;;
5339;SDS011;2692;48.848;8.924;2022-10-16T07:16:18;1.63;;;0.90;;
5339;SDS011;2692;48.848;8.924;2022-10-16T07:18:45;1.47;;;0.83;;
5339;SDS011;2692;48.848;8.924;2022-10-16T07:23:44;1.53;;;0.70;;
5339;SDS011;2692;48.848;8.924;2022-10-16T07:26:10;1.27;;;0.60;;
5339;SDS011;2692;48.848;8.924;2022-10-16T07:28:35;2.00;;;1.20;;
5339;SDS011;2692;48.848;8.924;2022-10-16T07:31:04;3.40;;;1.57;;
5339;SDS011;2692;48.848;8.924;2022-10-16T07:33:32;0.97;;;0.50;;
5339;SDS011;2692;48.848;8.924;2022-10-16T07:35:58;1.37;;;1.00;;
5339;SDS011;2692;48.848;8.924;2022-10-16T07:38:23;8.30;;;1.23;;
5339;SDS011;2692;48.848;8.924;2022-10-16T07:40:55;1.67;;;0.70;;
5339;SDS011;2692;48.848;8.924;2022-10-16T07:43:21;2.13;;;0.80;;
5339;SDS011;2692;48.848;8.924;2022-10-16T07:45:47;2.53;;;0.80;;
5339;SDS011;2692;48.848;8.924;2022-10-16T07:48:13;1.30;;;0.70;;
5339;SDS011;2692;48.848;8.924;2022-10-16T07:50:39;2.50;;;0.60;;
5339;SDS011;2692;48.848;8.924;2022-10-16T07:53:04;1.83;;;0.70;;
5339;SDS011;2692;48.848;8.924;2022-10-16T07:55:29;1.33;;;0.63;;
5339;SDS011;2692;48.848;8.924;2022-10-16T07:57:56;2.70;;;0.97;;
5339;SDS011;2692;48.848;8.924;2022-10-16T08:00:21;1.00;;;0.50;;
5339;SDS011;2692;48.848;8.924;2022-10-16T08:02:46;2.90;;;1.10;;
5339;SDS011;2692;48.848;8.924;2022-10-16T08:05:12;1.40;;;0.60;;
5339;SDS011;2692;48.848;8.924;2022-10-16T08:07:37;1.77;;;0.83;;
5339;SDS011;2692;48.848;8.924;2022-10-16T08:10:02;1.63;;;0.70;;
5339;SDS011;2692;48.848;8.924;2022-10-16T08:12:28;1.77;;;0.77;;
5339;SDS011;2692;48.848;8.924;2022-10-16T08:14:54;7.00;;;0.77;;
5339;SDS011;2692;48.848;8.924;2022-10-16T08:17:19;1.73;;;0.73;;
5339;SDS011;2692;48.848;8.924;2022-10-16T08:19:47;2.17;;;1.00;;
5339;SDS011;2692;48.848;8.924;2022-10-16T08:22:13;1.43;;;0.60;;
5339;SDS011;2692;48.848;8.924;2022-10-16T08:24:38;1.97;;;1.00;;
5339;SDS011;2692;48.848;8.924;2022-10-16T08:27:04;2.90;;;1.03;;
5339;SDS011;2692;48.848;8.924;2022-10-16T08:29:29;1.00;;;0.40;;
5339;SDS011;2692;48.848;8.924;2022-10-16T08:31:54;1.47;;;0.70;;
5339;SDS011;2692;48.848;8.924;2022-10-16T08:34:20;1.73;;;0.80;;
5339;SDS011;2692;48.848;8.924;2022-10-16T08:36:45;2.57;;;1.03;;
5339;SDS011;2692;48.848;8.924;2022-10-16T08:39:10;1.50;;;0.80;;
5339;SDS011;2692;48.848;8.924;2022-10-16T08:41:41;2.50;;;1.00;;
5339;SDS011;2692;48.848;8.924;2022-10-16T08:47:12;1.83;;;0.93;;
5339;SDS011;2692;48.848;8.924;2022-10-16T08:49:41;3.07;;;0.87;;
5339;SDS011;2692;48.848;8.924;2022-10-16T08:52:10;1.63;;;0.90;;
5339;SDS011;2692;48.848;8.924;2022-10-16T08:54:39;1.13;;;0.53;;
5339;SDS011;2692;48.848;8.924;2022-10-16T08:57:09;3.73;;;1.10;;
5339;SDS011;2692;48.848;8.924;2022-10-16T08:59:36;3.30;;;0.70;;
5339;SDS011;2692;48.848;8.924;2022-10-16T09:02:02;1.50;;;0.90;;
5339;SDS011;2692;48.848;8.924;2022-10-16T09:07:06;1.43;;;0.73;;
5339;SDS011;2692;48.848;8.924;2022-10-16T09:09:54;3.60;;;0.60;;
5339;SDS011;2692;48.848;8.924;2022-10-16T09:15:40;2.70;;;0.60;;
5339;SDS011;2692;48.848;8.924;2022-10-16T09:18:21;2.00;;;0.80;;
5339;SDS011;2692;48.848;8.924;2022-10-16T09:20:56;2.17;;;0.93;;
5339;SDS011;2692;48.848;8.924;2022-10-16T09:23:29;4.67;;;1.43;;
5339;SDS011;2692;48.848;8.924;2022-10-16T09:25:55;1.43;;;0.60;;
5339;SDS011;2692;48.848;8.924;2022-10-16T09:28:23;2.80;;;1.40;;
5339;SDS011;2692;48.848;8.924;2022-10-16T09:30:48;2.07;;;0.70;;
5339;SDS011;2692;48.848;8.924;2022-10-16T09:33:14;1.60;;;0.60;;
5339;SDS011;2692;48.848;8.924;2022-10-16T09:35:48;2.07;;;0.90;;
5339;SDS011;2692;48.848;8.924;2022-10-16T09:38:22;1.80;;;0.80;;
5339;SDS011;2692;48.848;8.924;2022-10-16T09:40:53;1.40;;;0.60;;
5339;SDS011;2692;48.848;8.924;2022-10-16T09:43:20;2.37;;;1.00;;
5339;SDS011;2692;48.848;8.924;2022-10-16T09:45:56;1.83;;;0.60;;
5339;SDS011;2692;48.848;8.924;2022-10-16T09:48:23;3.60;;;1.00;;
5339;SDS011;2692;48.848;8.924;2022-10-16T09:50:59;1.50;;;0.63;;
5339;SDS011;2692;48.848;8.924;2022-10-16T09:53:26;2.00;;;1.00;;
5339;SDS011;2692;48.848;8.924;2022-10-16T09:56:06;1.37;;;0.63;;
5339;SDS011;2692;48.848;8.924;2022-10-16T09:58:32;1.20;;;0.57;;
5339;SDS011;2692;48.848;8.924;2022-10-16T10:00:58;2.40;;;1.00;;
5339;SDS011;2692;48.848;8.924;2022-10-16T10:05:57;1.50;;;0.77;;
5339;SDS011;2692;48.848;8.924;2022-10-16T10:08:22;1.80;;;0.67;;
5339;SDS011;2692;48.848;8.924;2022-10-16T10:10:48;1.90;;;0.80;;
5339;SDS011;2692;48.848;8.924;2022-10-16T10:13:21;1.20;;;0.53;;
5339;SDS011;2692;48.848;8.924;2022-10-16T10:15:47;1.63;;;0.70;;
5339;SDS011;2692;48.848;8.924;2022-10-16T10:18:20;1.80;;;0.70;;
5339;SDS011;2692;48.848;8.924;2022-10-16T10:20:58;2.13;;;1.00;;
5339;SDS011;2692;48.848;8.924;2022-10-16T10:23:25;3.27;;;0.90;;
5339;SDS011;2692;48.848;8.924;2022-10-16T10:26:09;2.03;;;0.77;;
5339;SDS011;2692;48.848;8.924;2022-10-16T10:28:47;1.60;;;0.63;;
5339;SDS011;2692;48.848;8.924;2022-10-16T10:31:17;1.50;;;0.50;;
5339;SDS011;2692;48.848;8.924;2022-10-16T10:36:45;2.10;;;0.80;;
5339;SDS011;2692;48.848;8.924;2022-10-16T10:44:37;1.57;;;0.80;;
5339;SDS011;2692;48.848;8.924;2022-10-16T10:47:27;1.57;;;0.67;;
5339;SDS011;2692;48.848;8.924;2022-10-16T10:50:13;1.57;;;0.60;;
5339;SDS011;2692;48.848;8.924;2022-10-16T11:07:02;1.30;;;0.50;;
5339;SDS011;2692;48.848;8.924;2022-10-16T11:09:43;1.83;;;0.80;;
5339;SDS011;2692;48.848;8.924;2022-10-16T11:14:46;1.43;;;0.67;;
5339;SDS011;2692;48.848;8.924;2022-10-16T11:17:19;1.40;;;0.60;;
5339;SDS011;2692;48.848;8.924;2022-10-16T11:22:26;2.23;;;1.20;;
5339;SDS011;2692;48.848;8.924;2022-10-16T11:27:36;3.90;;;0.97;;
5339;SDS011;2692;48.848;8.924;2022-10-16T11:30:16;5.10;;;1.07;;
5339;SDS011;2692;48.848;8.924;2022-10-16T11:36:05;2.00;;;0.80;;
5339;SDS011;2692;48.848;8.924;2022-10-16T11:49:38;6.70;;;0.97;;
5339;SDS011;2692;48.848;8.924;2022-10-16T11:52:12;1.40;;;0.60;;
5339;SDS011;2692;48.848;8.924;2022-10-16T11:54:45;2.97;;;1.20;;
5339;SDS011;2692;48.848;8.924;2022-10-16T11:57:16;2.40;;;1.00;;
5339;SDS011;2692;48.848;8.924;2022-10-16T12:00:08;2.43;;;1.10;;
5339;SDS011;2692;48.848;8.924;2022-10-16T12:05:22;2.07;;;1.13;;
5339;SDS011;2692;48.848;8.924;2022-10-16T12:07:53;3.90;;;1.40;;
5339;SDS011;2692;48.848;8.924;2022-10-16T12:10:27;2.23;;;1.00;;
5339;SDS011;2692;48.848;8.924;2022-10-16T12:12:53;3.20;;;0.83;;
5339;SDS011;2692;48.848;8.924;2022-10-16T12:15:29;2.47;;;1.30;;
5339;SDS011;2692;48.848;8.924;2022-10-16T12:17:56;2.07;;;0.77;;
5339;SDS011;2692;48.848;8.924;2022-10-16T12:20:26;2.90;;;1.10;;
5339;SDS011;2692;48.848;8.924;2022-10-16T12:22:56;2.50;;;1.13;;
5339;SDS011;2692;48.848;8.924;2022-10-16T12:30:40;1.97;;;0.80;;
5339;SDS011;2692;48.848;8.924;2022-10-16T12:33:06;1.40;;;0.60;;
5339;SDS011;2692;48.848;8.924;2022-10-16T12:35:45;3.83;;;1.17;;
5339;SDS011;2692;48.848;8.924;2022-10-16T12:38:18;3.80;;;0.80;;
5339;SDS011;2692;48.848;8.924;2022-10-16T12:40:46;1.77;;;0.80;;
5339;SDS011;2692;48.848;8.924;2022-10-16T12:43:27;1.40;;;0.70;;
5339;SDS011;2692;48.848;8.924;2022-10-16T12:48:35;1.93;;;0.90;;
5339;SDS011;2692;48.848;8.924;2022-10-16T12:53:37;1.33;;;0.70;;
5339;SDS011;2692;48.848;8.924;2022-10-16T12:56:12;1.87;;;0.83;;
5339;SDS011;2692;48.848;8.924;2022-10-16T12:59:01;1.87;;;0.80;;
5339;SDS011;2692;48.848;8.924;2022-10-16T13:02:03;1.73;;;0.70;;
5339;SDS011;2692;48.848;8.924;2022-10-16T13:04:59;6.00;;;0.93;;
5339;SDS011;2692;48.848;8.924;2022-10-16T13:10:52;1.47;;;0.80;;
5339;SDS011;2692;48.848;8.924;2022-10-16T13:13:38;1.90;;;1.03;;
5339;SDS011;2692;48.848;8.924;2022-10-16T13:24:23;2.57;;;0.90;;
5339;SDS011;2692;48.848;8.924;2022-10-16T13:29:39;2.83;;;1.00;;
5339;SDS011;2692;48.848;8.924;2022-10-16T13:32:07;2.20;;;1.00;;
5339;SDS011;2692;48.848;8.924;2022-10-16T13:34:41;2.23;;;0.80;;
5339;SDS011;2692;48.848;8.924;2022-10-16T13:37:16;1.87;;;0.80;;
5339;SDS011;2692;48.848;8.924;2022-10-16T13:39:42;1.63;;;0.83;;
5339;SDS011;2692;48.848;8.924;2022-10-16T13:42:11;2.40;;;0.93;;
5339;SDS011;2692;48.848;8.924;2022-10-16T13:44:39;3.20;;;0.90;;
5339;SDS011;2692;48.848;8.924;2022-10-16T13:47:15;1.60;;;0.97;;
5339;SDS011;2692;48.848;8.924;2022-10-16T13:49:42;2.70;;;0.63;;
5339;SDS011;2692;48.848;8.924;2022-10-16T13:52:18;5.33;;;1.00;;
5339;SDS011;2692;48.848;8.924;2022-10-16T13:54:44;2.07;;;0.83;;
5339;SDS011;2692;48.848;8.924;2022-10-16T13:57:13;2.30;;;1.00;;
5339;SDS011;2692;48.848;8.924;2022-10-16T13:59:39;2.40;;;1.10;;
5339;SDS011;2692;48.848;8.924;2022-10-16T14:04:57;1.67;;;0.60;;
5339;SDS011;2692;48.848;8.924;2022-10-16T14:07:29;2.77;;;0.87;;
5339;SDS011;2692;48.848;8.924;2022-10-16T14:09:57;1.60;;;0.83;;
5339;SDS011;2692;48.848;8.924;2022-10-16T14:12:27;2.33;;;0.83;;
5339;SDS011;2692;48.848;8.924;2022-10-16T14:14:53;2.63;;;0.80;;
5339;SDS011;2692;48.848;8.924;2022-10-16T14:17:26;1.63;;;0.70;;
5339;SDS011;2692;48.848;8.924;2022-10-16T14:19:57;1.20;;;0.67;;
5339;SDS011;2692;48.848;8.924;2022-10-16T14:22:40;1.53;;;0.80;;
5339;SDS011;2692;48.848;8.924;2022-10-16T14:28:14;1.43;;;0.90;;
5339;SDS011;2692;48.848;8.924;2022-10-16T14:33:53;2.97;;;1.67;;
5339;SDS011;2692;48.848;8.924;2022-10-16T14:36:18;3.63;;;1.80;;
5339;SDS011;2692;48.848;8.924;2022-10-16T14:38:57;2.93;;;1.20;;
5339;SDS011;2692;48.848;8.924;2022-10-16T14:41:25;3.70;;;2.20;;
5339;SDS011;2692;48.848;8.924;2022-10-16T14:43:52;5.43;;;3.00;;
5339;SDS011;2692;48.848;8.924;2022-10-16T14:46:20;6.70;;;1.33;;
5339;SDS011;2692;48.848;8.924;2022-10-16T14:48:50;3.83;;;0.60;;
5339;SDS011;2692;48.848;8.924;2022-10-16T14:51:18;1.30;;;0.67;;
5339;SDS011;2692;48.848;8.924;2022-10-16T14:53:44;2.20;;;0.97;;
5339;SDS011;2692;48.848;8.924;2022-10-16T14:56:14;1.60;;;0.70;;
5339;SDS011;2692;48.848;8.924;2022-10-16T14:58:42;2.33;;;0.87;;
5339;SDS011;2692;48.848;8.924;2022-10-16T15:01:08;1.10;;;0.57;;
5339;SDS011;2692;48.848;8.924;2022-10-16T15:03:35;3.13;;;1.10;;
5339;SDS011;2692;48.848;8.924;2022-10-16T15:06:01;2.40;;;1.17;;
5339;SDS011;2692;48.848;8.924;2022-10-16T15:08:26;2.60;;;1.13;;
5339;SDS011;2692;48.848;8.924;2022-10-16T15:10:51;4.20;;;1.10;;
5339;SDS011;2692;48.848;8.924;2022-10-16T15:13:17;2.23;;;1.03;;
5339;SDS011;2692;48.848;8.924;2022-10-16T15:15:43;2.03;;;0.80;;
5339;SDS011;2692;48.848;8.924;2022-10-16T15:18:09;1.93;;;0.70;;
5339;SDS011;2692;48.848;8.924;2022-10-16T15:20:35;2.10;;;0.97;;
5339;SDS011;2692;48.848;8.924;2022-10-16T15:23:02;1.70;;;0.83;;
5339;SDS011;2692;48.848;8.924;2022-10-16T15:25:37;4.37;;;0.90;;
5339;SDS011;2692;48.848;8.924;2022-10-16T15:28:10;2.10;;;0.80;;
5339;SDS011;2692;48.848;8.924;2022-10-16T15:30:36;8.10;;;4.40;;
5339;SDS011;2692;48.848;8.924;2022-10-16T15:33:03;3.03;;;1.30;;
5339;SDS011;2692;48.848;8.924;2022-10-16T15:35:29;3.37;;;1.07;;
5339;SDS011;2692;48.848;8.924;2022-10-16T15:37:55;2.00;;;0.93;;
5339;SDS011;2692;48.848;8.924;2022-10-16T15:40:20;3.40;;;1.00;;
5339;SDS011;2692;48.848;8.924;2022-10-16T15:42:47;2.40;;;1.10;;
5339;SDS011;2692;48.848;8.924;2022-10-16T15:45:12;2.10;;;0.93;;
5339;SDS011;2692;48.848;8.924;2022-10-16T15:47:38;1.87;;;1.03;;
5339;SDS011;2692;48.848;8.924;2022-10-16T15:50:05;2.73;;;1.30;;
5339;SDS011;2692;48.848;8.924;2022-10-16T15:52:30;1.83;;;1.33;;
5339;SDS011;2692;48.848;8.924;2022-10-16T15:54:57;1.60;;;1.10;;
5339;SDS011;2692;48.848;8.924;2022-10-16T15:57:22;2.27;;;1.30;;
5339;SDS011;2692;48.848;8.924;2022-10-16T15:59:48;3.23;;;1.27;;
5339;SDS011;2692;48.848;8.924;2022-10-16T16:02:14;2.47;;;1.03;;
5339;SDS011;2692;48.848;8.924;2022-10-16T16:04:39;2.37;;;1.27;;
5339;SDS011;2692;48.848;8.924;2022-10-16T16:07:04;3.50;;;1.23;;
5339;SDS011;2692;48.848;8.924;2022-10-16T16:09:32;2.80;;;1.00;;
5339;SDS011;2692;48.848;8.924;2022-10-16T16:11:57;4.80;;;1.43;;
5339;SDS011;2692;48.848;8.924;2022-10-16T16:14:25;2.43;;;1.00;;
5339;SDS011;2692;48.848;8.924;2022-10-16T16:16:52;2.87;;;1.57;;
5339;SDS011;2692;48.848;8.924;2022-10-16T16:19:18;4.90;;;1.60;;
5339;SDS011;2692;48.848;8.924;2022-10-16T16:21:45;7.33;;;1.73;;
5339;SDS011;2692;48.848;8.924;2022-10-16T16:24:11;3.43;;;1.37;;
5339;SDS011;2692;48.848;8.924;2022-10-16T16:26:36;4.00;;;2.03;;
5339;SDS011;2692;48.848;8.924;2022-10-16T16:29:04;5.57;;;2.50;;
5339;SDS011;2692;48.848;8.924;2022-10-16T16:31:30;9.70;;;3.60;;
5339;SDS011;2692;48.848;8.924;2022-10-16T16:33:56;9.90;;;3.77;;
5339;SDS011;2692;48.848;8.924;2022-10-16T16:36:22;8.70;;;3.83;;
5339;SDS011;2692;48.848;8.924;2022-10-16T16:38:48;9.80;;;4.27;;
5339;SDS011;2692;48.848;8.924;2022-10-16T16:41:14;5.20;;;3.13;;
5339;SDS011;2692;48.848;8.924;2022-10-16T16:43:41;6.43;;;2.87;;
5339;SDS011;2692;48.848;8.924;2022-10-16T16:46:07;8.90;;;3.80;;
5339;SDS011;2692;48.848;8.924;2022-10-16T16:48:32;8.63;;;4.80;;
5339;SDS011;2692;48.848;8.924;2022-10-16T16:51:02;8.30;;;4.40;;
5339;SDS011;2692;48.848;8.924;2022-10-16T16:53:29;7.63;;;3.87;;
5339;SDS011;2692;48.848;8.924;2022-10-16T16:55:55;7.50;;;2.40;;
5339;SDS011;2692;48.848;8.924;2022-10-16T16:58:20;3.00;;;1.50;;
5339;SDS011;2692;48.848;8.924;2022-10-16T17:00:46;3.10;;;1.70;;
5339;SDS011;2692;48.848;8.924;2022-10-16T17:03:11;1.63;;;0.73;;
5339;SDS011;2692;48.848;8.924;2022-10-16T17:05:36;3.97;;;1.23;;
5339;SDS011;2692;48.848;8.924;2022-10-16T17:08:02;3.90;;;0.97;;